Coral Leaf — PHNI — position and weather

sailwx.info

Track history (hours):
 
Tides and Currents Weather Stations Pressure Air Temp Water Temp Dewpoint Dewpoint Depression Visibility Wind Speed Wind Dir Waves Ship Positions

Coral Leaf

Last reported at 2017-Oct-22 04:53 UTC. Time now 2017-Oct-22 08:28 UTC.
Position N 53°35' E 005°31'.

Length 108 m; draft 6.5 m.

Type: Tanker. MMSI: 244036000.

Date/timePositionNaut miles runAvg speedWind from/ knotsBaromVisibWave heightAir tempDewpointWater temp
2017-Oct-22 04:53N 53°35' E 005°31'615.2
2017-Oct-22 04:30N 53°33' E 005°21'715.1
2017-Oct-22 04:00N 53°30' E 005°10'714.8
2017-Oct-22 03:30N 53°28' E 004°58'714.8
2017-Oct-22 03:00N 53°25' E 004°47'1714.5
2017-Oct-22 01:48N 53°10' E 004°31'514.1
2017-Oct-22 01:27N 53°06' E 004°26'614.1
2017-Oct-22 01:00N 53°00' E 004°21'714.0
2017-Oct-22 00:30N 52°54' E 004°16'713.8
2017-Oct-22 00:00N 52°48' E 004°11'713.2
2017-Oct-21 23:30N 52°43' E 004°04'713.5
2017-Oct-21 23:01N 52°39' E 003°55'713.4
2017-Oct-21 22:30N 52°35' E 003°46'8314.2
2017-Oct-21 16:39N 51°32' E 002°18'316.1
2017-Oct-21 16:29N 51°30' E 002°15'816.1
2017-Oct-21 16:00N 51°24' E 002°08'815.9
2017-Oct-21 15:30N 51°16' E 002°05'816.4
2017-Oct-21 15:00N 51°11' E 001°54'816.9
2017-Oct-21 14:30N 51°06' E 001°44'1717.1
2017-Oct-21 13:30N 50°52' E 001°27'4914.5
2017-Oct-21 10:09N 50°26' E 000°23'515.8
2017-Oct-21 09:51N 50°24' E 000°16'617.1
2017-Oct-21 09:30N 50°23' E 000°07'816.9
2017-Oct-21 09:00N 50°20' W 000°06'816.9
2017-Oct-21 08:30N 50°17' W 000°18'917.2
2017-Oct-21 07:58N 50°14' W 000°32'9413.9
2017-Oct-21 01:11N 49°48' W 002°53'1113.0
2017-Oct-21 00:22N 49°42' W 003°07'513.2
2017-Oct-20 23:59N 49°40' W 003°14'1713.3
2017-Oct-20 22:42N 49°31' W 003°37'813.5
2017-Oct-20 22:07N 49°27' W 003°47'413.7
2017-Oct-20 21:50N 49°25' W 003°52'513.7
2017-Oct-20 21:30N 49°23' W 003°58'913.7
2017-Oct-20 20:49N 49°18' W 004°10'1114.2
2017-Oct-20 20:03N 49°13' W 004°25'114.6
2017-Oct-20 20:00N 49°13' W 004°26'2814.9
2017-Oct-20 18:07N 48°59' W 005°04'215.2
2017-Oct-20 17:59N 48°58' W 005°07'815.7
2017-Oct-20 17:29N 48°54' W 005°17'815.9
2017-Oct-20 17:00N 48°51' W 005°27'815.5
2017-Oct-20 16:28N 48°46' W 005°37'816.1
2017-Oct-20 16:00N 48°39' W 005°43'58114.2
2017-Oct-18 23:06N 39°27' W 009°56'214.7
2017-Oct-18 22:56N 39°24' W 009°56'614.4
2017-Oct-18 22:29N 39°18' W 009°56'714.2
2017-Oct-18 22:00N 39°11' W 009°56'714.2
2017-Oct-18 21:30N 39°04' W 009°56'713.7
2017-Oct-18 21:00N 38°57' W 009°56'714.6
2017-Oct-18 20:31N 38°50' W 009°56'714.3
2017-Oct-18 20:01N 38°43' W 009°55'713.7
2017-Oct-18 19:30N 38°36' W 009°54'612.9
2017-Oct-18 19:00N 38°32' W 009°48'713.3
2017-Oct-18 18:30N 38°28' W 009°41'612.2
2017-Oct-18 18:00N 38°24' W 009°35'611.7
2017-Oct-18 17:31N 38°20' W 009°30'612.4
2017-Oct-18 17:01N 38°16' W 009°24'612.6
2017-Oct-18 16:31N 38°12' W 009°18'612.9
2017-Oct-18 16:00N 38°08' W 009°11'713.4
2017-Oct-18 15:30N 38°03' W 009°05'714.0
2017-Oct-18 15:00N 37°59' W 008°58'4 4.1
2017-Oct-18 13:55N 37°57' W 008°53'0 0.0
2017-Oct-18 13:28N 37°57' W 008°53'0 0.0
2017-Oct-18 12:55N 37°57' W 008°53'0 0.0
2017-Oct-18 12:28N 37°57' W 008°53'0 0.0
2017-Oct-18 11:52N 37°57' W 008°53'0 0.0
2017-Oct-18 11:28N 37°57' W 008°53'0 0.0
2017-Oct-18 10:55N 37°57' W 008°53'0 0.0
2017-Oct-18 10:28N 37°57' W 008°53'0 0.0
2017-Oct-18 09:58N 37°57' W 008°53'0 0.0
2017-Oct-18 09:28N 37°57' W 008°53'0 0.0
2017-Oct-18 08:55N 37°57' W 008°53'0 0.0
2017-Oct-18 08:28N 37°57' W 008°53'0 0.0
2017-Oct-18 07:55N 37°57' W 008°53'0 0.0
2017-Oct-18 07:28N 37°57' W 008°53'0 0.0
2017-Oct-18 06:55N 37°57' W 008°53'0 0.0
2017-Oct-18 06:28N 37°57' W 008°53'0 0.0
2017-Oct-18 05:55N 37°57' W 008°53'0 0.0
2017-Oct-18 05:25N 37°57' W 008°53'0 0.0
2017-Oct-18 04:55N 37°57' W 008°53'0 0.0
2017-Oct-18 04:28N 37°57' W 008°53'0 0.0
2017-Oct-18 03:55N 37°57' W 008°53'0 0.0
2017-Oct-18 03:28N 37°57' W 008°53'0 0.0
2017-Oct-18 02:52N 37°57' W 008°53'0 0.0
2017-Oct-18 02:28N 37°57' W 008°53'0 0.0
2017-Oct-18 01:58N 37°57' W 008°53'0 0.0
2017-Oct-18 01:28N 37°57' W 008°53'0 0.0
2017-Oct-18 00:58N 37°57' W 008°53'0 0.0
2017-Oct-18 00:28N 37°57' W 008°53'0 0.0
2017-Oct-17 23:58N 37°57' W 008°53'0 0.0
2017-Oct-17 23:28N 37°57' W 008°53'0 0.0
2017-Oct-17 22:58N 37°57' W 008°53'0 0.0
2017-Oct-17 22:28N 37°57' W 008°53'0 0.0
2017-Oct-17 22:00N 37°57' W 008°53'1 2.5
2017-Oct-17 21:30N 37°56' W 008°53'510.1
2017-Oct-17 21:00N 37°59' W 008°58'611.9
2017-Oct-17 20:30N 38°02' W 009°05'713.5
2017-Oct-17 20:00N 38°05' W 009°12'815.4
2017-Oct-17 19:30N 38°09' W 009°21'815.4
2017-Oct-17 19:00N 38°12' W 009°30'815.1
2017-Oct-17 18:30N 38°16' W 009°38'714.4
2017-Oct-17 18:00N 38°20' W 009°46'714.1
2017-Oct-17 17:30N 38°25' W 009°52'714.1
2017-Oct-17 17:00N 38°29' W 009°59'714.0
2017-Oct-17 16:30N 38°32' W 010°07'813.5
2017-Oct-17 15:54N 38°40' W 010°11'514.0
2017-Oct-17 15:30N 38°46' W 010°11'713.6
2017-Oct-17 14:59N 38°53' W 010°11'713.8
2017-Oct-17 14:30N 38°59' W 010°11'713.9
2017-Oct-17 14:00N 39°06' W 010°11'714.1
2017-Oct-17 13:30N 39°13' W 010°11'713.7
2017-Oct-17 13:00N 39°20' W 010°11'38911.5
2017-Oct-16 03:13N 44°58' W 005°51'314.4
2017-Oct-16 02:59N 44°60' W 005°46'714.4
2017-Oct-16 02:31N 45°02' W 005°37'714.5
2017-Oct-16 02:00N 45°09' W 005°38'815.2
2017-Oct-16 01:30N 45°17' W 005°39'815.4
2017-Oct-16 01:01N 45°24' W 005°40'815.0
2017-Oct-16 00:30N 45°32' W 005°41'714.7
2017-Oct-16 00:00N 45°39' W 005°42'1914.6
2017-Oct-15 22:41N 45°58' W 005°43'314.7
2017-Oct-15 22:30N 46°01' W 005°43'714.8
2017-Oct-15 22:01N 46°08' W 005°44'714.7
2017-Oct-15 21:31N 46°16' W 005°45'815.0
2017-Oct-15 21:01N 46°23' W 005°46'815.3
2017-Oct-15 20:30N 46°31' W 005°46'815.3
2017-Oct-15 20:00N 46°38' W 005°47'815.8
2017-Oct-15 19:30N 46°46' W 005°48'815.8
2017-Oct-15 19:00N 46°54' W 005°49'815.8
2017-Oct-15 18:29N 47°02' W 005°50'715.6
2017-Oct-15 18:00N 47°10' W 005°51'715.0
2017-Oct-15 17:31N 47°17' W 005°52'815.4
2017-Oct-15 17:01N 47°25' W 005°53'815.4
2017-Oct-15 16:30N 47°33' W 005°54'815.2
2017-Oct-15 15:59N 47°41' W 005°55'715.3
2017-Oct-15 15:30N 47°48' W 005°55'915.3
2017-Oct-15 14:56N 47°57' W 005°56'1414.9
2017-Oct-15 14:00N 48°10' W 005°57'4812.2
2017-Oct-15 10:04N 48°57' W 005°38'113.5
2017-Oct-15 10:00N 48°57' W 005°37'1313.7
2017-Oct-15 09:03N 49°03' W 005°19'114.2
2017-Oct-15 09:00N 49°04' W 005°19'714.3
2017-Oct-15 08:29N 49°08' W 005°09'714.4
2017-Oct-15 08:00N 49°12' W 005°01'714.5
2017-Oct-15 07:31N 49°16' W 004°52'714.2
2017-Oct-15 07:00N 49°20' W 004°42'815.3
2017-Oct-15 06:30N 49°24' W 004°32'815.2
2017-Oct-15 06:01N 49°28' W 004°22'815.2
2017-Oct-15 05:30N 49°32' W 004°12'714.9
2017-Oct-15 05:00N 49°35' W 004°02'714.5
2017-Oct-15 04:30N 49°39' W 003°53'714.1
2017-Oct-15 04:01N 49°43' W 003°43'713.9
2017-Oct-15 03:30N 49°46' W 003°34'713.8
2017-Oct-15 03:00N 49°50' W 003°25'713.8
2017-Oct-15 02:30N 49°53' W 003°16'713.9
2017-Oct-15 02:00N 49°57' W 003°06'714.2
2017-Oct-15 01:30N 49°59' W 002°56'714.7
2017-Oct-15 01:00N 50°01' W 002°45'815.2
2017-Oct-15 00:29N 50°03' W 002°33'915.7
2017-Oct-14 23:56N 50°06' W 002°20'716.4
2017-Oct-14 23:30N 50°08' W 002°10'916.9
2017-Oct-14 23:00N 50°10' W 001°57'1017.3
2017-Oct-14 22:26N 50°13' W 001°42'917.2
2017-Oct-14 21:56N 50°16' W 001°30'817.4
2017-Oct-14 21:30N 50°17' W 001°18'917.5
2017-Oct-14 21:00N 50°19' W 001°05'917.2
2017-Oct-14 20:31N 50°22' W 000°52'816.5
2017-Oct-14 20:01N 50°24' W 000°39'816.2
2017-Oct-14 19:30N 50°26' W 000°27'815.8
2017-Oct-14 19:00N 50°28' W 000°15'815.5
2017-Oct-14 18:31N 50°30' W 000°04'815.0
2017-Oct-14 18:00N 50°33' E 000°08'714.7
2017-Oct-14 17:31N 50°35' E 000°19'714.3
2017-Oct-14 17:00N 50°37' E 000°29'714.2
2017-Oct-14 16:31N 50°40' E 000°39'714.5
2017-Oct-14 16:01N 50°44' E 000°49'714.8
2017-Oct-14 15:30N 50°49' E 000°59'815.3
2017-Oct-14 15:00N 50°53' E 001°09'816.1
2017-Oct-14 14:30N 50°59' E 001°18'816.7
2017-Oct-14 14:00N 51°04' E 001°28'816.8
2017-Oct-14 13:31N 51°09' E 001°38'815.8
2017-Oct-14 13:01N 51°15' E 001°47'815.3
2017-Oct-14 12:31N 51°22' E 001°50'714.4
2017-Oct-14 12:00N 51°29' E 001°51'714.7
2017-Oct-14 11:31N 51°36' E 001°47'714.4
2017-Oct-14 11:01N 51°43' E 001°45'714.2
2017-Oct-14 10:31N 51°50' E 001°43'713.5
2017-Oct-14 10:00N 51°57' E 001°46'713.1
2017-Oct-14 09:30N 52°03' E 001°48'713.1
2017-Oct-14 09:00N 52°10' E 001°50'713.0
2017-Oct-14 08:27N 52°17' E 001°54'713.1
2017-Oct-14 07:56N 52°23' E 001°56'613.3
2017-Oct-14 07:31N 52°29' E 001°58'713.5
2017-Oct-14 07:00N 52°36' E 002°01'613.2
2017-Oct-14 06:30N 52°42' E 001°58'814.1
2017-Oct-14 05:57N 52°48' E 001°51'1714.7
2017-Oct-14 04:50N 52°59' E 001°31'515.3
2017-Oct-14 04:29N 53°04' E 001°27'1015.4
2017-Oct-14 03:50N 53°12' E 001°18'5515.2
2017-Oct-14 00:13N 53°58' E 000°25'315.7
2017-Oct-14 00:00N 54°01' E 000°22'815.6
2017-Oct-13 23:30N 54°07' E 000°13'815.9
2017-Oct-13 23:00N 54°13' E 000°05'816.1
2017-Oct-13 22:30N 54°19' W 000°03'816.0
2017-Oct-13 22:00N 54°26' W 000°11'816.0
2017-Oct-13 21:30N 54°32' W 000°20'816.0
2017-Oct-13 21:00N 54°38' W 000°28'816.0
2017-Oct-13 20:30N 54°45' W 000°37'815.3
2017-Oct-13 20:00N 54°51' W 000°44'815.0
2017-Oct-13 19:29N 54°58' W 000°50'815.0
2017-Oct-13 18:56N 55°06' W 000°56'615.0
2017-Oct-13 18:30N 55°12' W 001°01'815.1
2017-Oct-13 18:00N 55°18' W 001°06'815.3
2017-Oct-13 17:30N 55°25' W 001°12'815.4
2017-Oct-13 17:00N 55°32' W 001°18'714.9
2017-Oct-13 16:30N 55°39' W 001°23'714.6
2017-Oct-13 16:00N 55°45' W 001°31'715.0
2017-Oct-13 15:30N 55°50' W 001°41'815.2
2017-Oct-13 15:01N 55°55' W 001°51'815.2
2017-Oct-13 14:30N 55°60' W 002°02'815.3
2017-Oct-13 14:00N 56°02' W 002°15'815.4
2017-Oct-13 13:30N 56°05' W 002°27'815.4
2017-Oct-13 13:00N 56°07' W 002°41'816.1
2017-Oct-13 12:31N 56°06' W 002°55'713.1
2017-Oct-13 12:01N 56°05' W 003°07'611.4
2017-Oct-13 11:30N 56°06' W 002°57'3 5.4
2017-Oct-13 11:00N 56°05' W 002°53'714.5
2017-Oct-13 10:30N 56°03' W 003°06'815.4
2017-Oct-13 10:00N 56°01' W 003°19'612.8
2017-Oct-13 09:30N 56°02' W 003°31'6 9.9
2017-Oct-13 08:55N 56°02' W 003°41'  
Track history (hours):
 
Tides and Currents Weather Stations Pressure Air Temp Water Temp Dewpoint Dewpoint Depression Visibility Wind Speed Wind Dir Waves Ship Positions

Coral Leaf

Last reported at 2017-Oct-22 04:53 UTC. Time now 2017-Oct-22 08:28 UTC.
Position N 53°35' E 005°31'.

Length 108 m; draft 6.5 m.

Type: Tanker. MMSI: 244036000.

Date/timePositionNaut miles runAvg speedWind from/ knotsBaromVisibWave heightAir tempDewpointWater temp
2017-Oct-22 04:53N 53°35' E 005°31'615.2
2017-Oct-22 04:30N 53°33' E 005°21'715.1
2017-Oct-22 04:00N 53°30' E 005°10'714.8
2017-Oct-22 03:30N 53°28' E 004°58'714.8
2017-Oct-22 03:00N 53°25' E 004°47'1714.5
2017-Oct-22 01:48N 53°10' E 004°31'514.1
2017-Oct-22 01:27N 53°06' E 004°26'614.1
2017-Oct-22 01:00N 53°00' E 004°21'714.0
2017-Oct-22 00:30N 52°54' E 004°16'713.8
2017-Oct-22 00:00N 52°48' E 004°11'713.2
2017-Oct-21 23:30N 52°43' E 004°04'713.5
2017-Oct-21 23:01N 52°39' E 003°55'713.4
2017-Oct-21 22:30N 52°35' E 003°46'8314.2
2017-Oct-21 16:39N 51°32' E 002°18'316.1
2017-Oct-21 16:29N 51°30' E 002°15'816.1
2017-Oct-21 16:00N 51°24' E 002°08'815.9
2017-Oct-21 15:30N 51°16' E 002°05'816.4
2017-Oct-21 15:00N 51°11' E 001°54'816.9
2017-Oct-21 14:30N 51°06' E 001°44'1717.1
2017-Oct-21 13:30N 50°52' E 001°27'4914.5
2017-Oct-21 10:09N 50°26' E 000°23'515.8
2017-Oct-21 09:51N 50°24' E 000°16'617.1
2017-Oct-21 09:30N 50°23' E 000°07'816.9
2017-Oct-21 09:00N 50°20' W 000°06'816.9
2017-Oct-21 08:30N 50°17' W 000°18'917.2
2017-Oct-21 07:58N 50°14' W 000°32'9413.9
2017-Oct-21 01:11N 49°48' W 002°53'1113.0
2017-Oct-21 00:22N 49°42' W 003°07'513.2
2017-Oct-20 23:59N 49°40' W 003°14'1713.3
2017-Oct-20 22:42N 49°31' W 003°37'813.5
2017-Oct-20 22:07N 49°27' W 003°47'413.7
2017-Oct-20 21:50N 49°25' W 003°52'513.7
2017-Oct-20 21:30N 49°23' W 003°58'913.7
2017-Oct-20 20:49N 49°18' W 004°10'1114.2
2017-Oct-20 20:03N 49°13' W 004°25'114.6
2017-Oct-20 20:00N 49°13' W 004°26'2814.9
2017-Oct-20 18:07N 48°59' W 005°04'215.2
2017-Oct-20 17:59N 48°58' W 005°07'815.7
2017-Oct-20 17:29N 48°54' W 005°17'815.9
2017-Oct-20 17:00N 48°51' W 005°27'815.5
2017-Oct-20 16:28N 48°46' W 005°37'816.1
2017-Oct-20 16:00N 48°39' W 005°43'58114.2
2017-Oct-18 23:06N 39°27' W 009°56'214.7
2017-Oct-18 22:56N 39°24' W 009°56'614.4
2017-Oct-18 22:29N 39°18' W 009°56'714.2
2017-Oct-18 22:00N 39°11' W 009°56'714.2
2017-Oct-18 21:30N 39°04' W 009°56'713.7
2017-Oct-18 21:00N 38°57' W 009°56'714.6
2017-Oct-18 20:31N 38°50' W 009°56'714.3
2017-Oct-18 20:01N 38°43' W 009°55'713.7
2017-Oct-18 19:30N 38°36' W 009°54'612.9
2017-Oct-18 19:00N 38°32' W 009°48'713.3
2017-Oct-18 18:30N 38°28' W 009°41'612.2
2017-Oct-18 18:00N 38°24' W 009°35'611.7
2017-Oct-18 17:31N 38°20' W 009°30'612.4
2017-Oct-18 17:01N 38°16' W 009°24'612.6
2017-Oct-18 16:31N 38°12' W 009°18'612.9
2017-Oct-18 16:00N 38°08' W 009°11'713.4
2017-Oct-18 15:30N 38°03' W 009°05'714.0
2017-Oct-18 15:00N 37°59' W 008°58'4 4.1
2017-Oct-18 13:55N 37°57' W 008°53'0 0.0
2017-Oct-18 13:28N 37°57' W 008°53'0 0.0
2017-Oct-18 12:55N 37°57' W 008°53'0 0.0
2017-Oct-18 12:28N 37°57' W 008°53'0 0.0
2017-Oct-18 11:52N 37°57' W 008°53'0 0.0
2017-Oct-18 11:28N 37°57' W 008°53'0 0.0
2017-Oct-18 10:55N 37°57' W 008°53'0 0.0
2017-Oct-18 10:28N 37°57' W 008°53'0 0.0
2017-Oct-18 09:58N 37°57' W 008°53'0 0.0
2017-Oct-18 09:28N 37°57' W 008°53'0 0.0
2017-Oct-18 08:55N 37°57' W 008°53'0 0.0
2017-Oct-18 08:28N 37°57' W 008°53'0 0.0
2017-Oct-18 07:55N 37°57' W 008°53'0 0.0
2017-Oct-18 07:28N 37°57' W 008°53'0 0.0
2017-Oct-18 06:55N 37°57' W 008°53'0 0.0
2017-Oct-18 06:28N 37°57' W 008°53'0 0.0
2017-Oct-18 05:55N 37°57' W 008°53'0 0.0
2017-Oct-18 05:25N 37°57' W 008°53'0 0.0
2017-Oct-18 04:55N 37°57' W 008°53'0 0.0
2017-Oct-18 04:28N 37°57' W 008°53'0 0.0
2017-Oct-18 03:55N 37°57' W 008°53'0 0.0
2017-Oct-18 03:28N 37°57' W 008°53'0 0.0
2017-Oct-18 02:52N 37°57' W 008°53'0 0.0
2017-Oct-18 02:28N 37°57' W 008°53'0 0.0
2017-Oct-18 01:58N 37°57' W 008°53'0 0.0
2017-Oct-18 01:28N 37°57' W 008°53'0 0.0
2017-Oct-18 00:58N 37°57' W 008°53'0 0.0
2017-Oct-18 00:28N 37°57' W 008°53'0 0.0
2017-Oct-17 23:58N 37°57' W 008°53'0 0.0
2017-Oct-17 23:28N 37°57' W 008°53'0 0.0
2017-Oct-17 22:58N 37°57' W 008°53'0 0.0
2017-Oct-17 22:28N 37°57' W 008°53'0 0.0
2017-Oct-17 22:00N 37°57' W 008°53'1 2.5
2017-Oct-17 21:30N 37°56' W 008°53'510.1
2017-Oct-17 21:00N 37°59' W 008°58'611.9
2017-Oct-17 20:30N 38°02' W 009°05'713.5
2017-Oct-17 20:00N 38°05' W 009°12'815.4
2017-Oct-17 19:30N 38°09' W 009°21'815.4
2017-Oct-17 19:00N 38°12' W 009°30'815.1
2017-Oct-17 18:30N 38°16' W 009°38'714.4
2017-Oct-17 18:00N 38°20' W 009°46'714.1
2017-Oct-17 17:30N 38°25' W 009°52'714.1
2017-Oct-17 17:00N 38°29' W 009°59'714.0
2017-Oct-17 16:30N 38°32' W 010°07'813.5
2017-Oct-17 15:54N 38°40' W 010°11'514.0
2017-Oct-17 15:30N 38°46' W 010°11'713.6
2017-Oct-17 14:59N 38°53' W 010°11'713.8
2017-Oct-17 14:30N 38°59' W 010°11'713.9
2017-Oct-17 14:00N 39°06' W 010°11'714.1
2017-Oct-17 13:30N 39°13' W 010°11'713.7
2017-Oct-17 13:00N 39°20' W 010°11'38911.5
2017-Oct-16 03:13N 44°58' W 005°51'314.4
2017-Oct-16 02:59N 44°60' W 005°46'714.4
2017-Oct-16 02:31N 45°02' W 005°37'714.5
2017-Oct-16 02:00N 45°09' W 005°38'815.2
2017-Oct-16 01:30N 45°17' W 005°39'815.4
2017-Oct-16 01:01N 45°24' W 005°40'815.0
2017-Oct-16 00:30N 45°32' W 005°41'714.7
2017-Oct-16 00:00N 45°39' W 005°42'1914.6
2017-Oct-15 22:41N 45°58' W 005°43'314.7
2017-Oct-15 22:30N 46°01' W 005°43'714.8
2017-Oct-15 22:01N 46°08' W 005°44'714.7
2017-Oct-15 21:31N 46°16' W 005°45'815.0
2017-Oct-15 21:01N 46°23' W 005°46'815.3
2017-Oct-15 20:30N 46°31' W 005°46'815.3
2017-Oct-15 20:00N 46°38' W 005°47'815.8
2017-Oct-15 19:30N 46°46' W 005°48'815.8
2017-Oct-15 19:00N 46°54' W 005°49'815.8
2017-Oct-15 18:29N 47°02' W 005°50'715.6
2017-Oct-15 18:00N 47°10' W 005°51'715.0
2017-Oct-15 17:31N 47°17' W 005°52'815.4
2017-Oct-15 17:01N 47°25' W 005°53'815.4
2017-Oct-15 16:30N 47°33' W 005°54'815.2
2017-Oct-15 15:59N 47°41' W 005°55'715.3
2017-Oct-15 15:30N 47°48' W 005°55'915.3
2017-Oct-15 14:56N 47°57' W 005°56'1414.9
2017-Oct-15 14:00N 48°10' W 005°57'4812.2
2017-Oct-15 10:04N 48°57' W 005°38'113.5
2017-Oct-15 10:00N 48°57' W 005°37'1313.7
2017-Oct-15 09:03N 49°03' W 005°19'114.2
2017-Oct-15 09:00N 49°04' W 005°19'714.3
2017-Oct-15 08:29N 49°08' W 005°09'714.4
2017-Oct-15 08:00N 49°12' W 005°01'714.5
2017-Oct-15 07:31N 49°16' W 004°52'714.2
2017-Oct-15 07:00N 49°20' W 004°42'815.3
2017-Oct-15 06:30N 49°24' W 004°32'815.2
2017-Oct-15 06:01N 49°28' W 004°22'815.2
2017-Oct-15 05:30N 49°32' W 004°12'714.9
2017-Oct-15 05:00N 49°35' W 004°02'714.5
2017-Oct-15 04:30N 49°39' W 003°53'714.1
2017-Oct-15 04:01N 49°43' W 003°43'713.9
2017-Oct-15 03:30N 49°46' W 003°34'713.8
2017-Oct-15 03:00N 49°50' W 003°25'713.8
2017-Oct-15 02:30N 49°53' W 003°16'713.9
2017-Oct-15 02:00N 49°57' W 003°06'714.2
2017-Oct-15 01:30N 49°59' W 002°56'714.7
2017-Oct-15 01:00N 50°01' W 002°45'815.2
2017-Oct-15 00:29N 50°03' W 002°33'915.7
2017-Oct-14 23:56N 50°06' W 002°20'716.4
2017-Oct-14 23:30N 50°08' W 002°10'916.9
2017-Oct-14 23:00N 50°10' W 001°57'1017.3
2017-Oct-14 22:26N 50°13' W 001°42'917.2
2017-Oct-14 21:56N 50°16' W 001°30'817.4
2017-Oct-14 21:30N 50°17' W 001°18'917.5
2017-Oct-14 21:00N 50°19' W 001°05'917.2
2017-Oct-14 20:31N 50°22' W 000°52'816.5
2017-Oct-14 20:01N 50°24' W 000°39'816.2
2017-Oct-14 19:30N 50°26' W 000°27'815.8
2017-Oct-14 19:00N 50°28' W 000°15'815.5
2017-Oct-14 18:31N 50°30' W 000°04'815.0
2017-Oct-14 18:00N 50°33' E 000°08'714.7
2017-Oct-14 17:31N 50°35' E 000°19'714.3
2017-Oct-14 17:00N 50°37' E 000°29'714.2
2017-Oct-14 16:31N 50°40' E 000°39'714.5
2017-Oct-14 16:01N 50°44' E 000°49'714.8
2017-Oct-14 15:30N 50°49' E 000°59'815.3
2017-Oct-14 15:00N 50°53' E 001°09'816.1
2017-Oct-14 14:30N 50°59' E 001°18'816.7
2017-Oct-14 14:00N 51°04' E 001°28'816.8
2017-Oct-14 13:31N 51°09' E 001°38'815.8
2017-Oct-14 13:01N 51°15' E 001°47'815.3
2017-Oct-14 12:31N 51°22' E 001°50'714.4
2017-Oct-14 12:00N 51°29' E 001°51'714.7
2017-Oct-14 11:31N 51°36' E 001°47'714.4
2017-Oct-14 11:01N 51°43' E 001°45'714.2
2017-Oct-14 10:31N 51°50' E 001°43'713.5
2017-Oct-14 10:00N 51°57' E 001°46'713.1
2017-Oct-14 09:30N 52°03' E 001°48'713.1
2017-Oct-14 09:00N 52°10' E 001°50'713.0
2017-Oct-14 08:27N 52°17' E 001°54'713.1
2017-Oct-14 07:56N 52°23' E 001°56'613.3
2017-Oct-14 07:31N 52°29' E 001°58'713.5
2017-Oct-14 07:00N 52°36' E 002°01'613.2
2017-Oct-14 06:30N 52°42' E 001°58'814.1
2017-Oct-14 05:57N 52°48' E 001°51'1714.7
2017-Oct-14 04:50N 52°59' E 001°31'515.3
2017-Oct-14 04:29N 53°04' E 001°27'1015.4
2017-Oct-14 03:50N 53°12' E 001°18'5515.2
2017-Oct-14 00:13N 53°58' E 000°25'315.7
2017-Oct-14 00:00N 54°01' E 000°22'815.6
2017-Oct-13 23:30N 54°07' E 000°13'815.9
2017-Oct-13 23:00N 54°13' E 000°05'816.1
2017-Oct-13 22:30N 54°19' W 000°03'816.0
2017-Oct-13 22:00N 54°26' W 000°11'816.0
2017-Oct-13 21:30N 54°32' W 000°20'816.0
2017-Oct-13 21:00N 54°38' W 000°28'816.0
2017-Oct-13 20:30N 54°45' W 000°37'815.3
2017-Oct-13 20:00N 54°51' W 000°44'815.0
2017-Oct-13 19:29N 54°58' W 000°50'815.0
2017-Oct-13 18:56N 55°06' W 000°56'615.0
2017-Oct-13 18:30N 55°12' W 001°01'815.1
2017-Oct-13 18:00N 55°18' W 001°06'815.3
2017-Oct-13 17:30N 55°25' W 001°12'815.4
2017-Oct-13 17:00N 55°32' W 001°18'714.9
2017-Oct-13 16:30N 55°39' W 001°23'714.6
2017-Oct-13 16:00N 55°45' W 001°31'715.0
2017-Oct-13 15:30N 55°50' W 001°41'815.2
2017-Oct-13 15:01N 55°55' W 001°51'815.2
2017-Oct-13 14:30N 55°60' W 002°02'815.3
2017-Oct-13 14:00N 56°02' W 002°15'815.4
2017-Oct-13 13:30N 56°05' W 002°27'815.4
2017-Oct-13 13:00N 56°07' W 002°41'816.1
2017-Oct-13 12:31N 56°06' W 002°55'713.1
2017-Oct-13 12:01N 56°05' W 003°07'611.4
2017-Oct-13 11:30N 56°06' W 002°57'3 5.4
2017-Oct-13 11:00N 56°05' W 002°53'714.5
2017-Oct-13 10:30N 56°03' W 003°06'815.4
2017-Oct-13 10:00N 56°01' W 003°19'612.8
2017-Oct-13 09:30N 56°02' W 003°31'6 9.9
2017-Oct-13 08:55N 56°02' W 003°41'  

Dump ship's entire track history